createdAt,value
2022-12-17T00:00:08.829Z,23.07
2022-12-17T00:03:30.415Z,23.83
2022-12-17T00:06:50.755Z,25.33
2022-12-17T00:10:10.851Z,27.03
2022-12-17T00:13:40.970Z,28.73
2022-12-17T00:17:01.607Z,25.63
2022-12-17T00:20:22.198Z,26.63
2022-12-17T00:23:42.356Z,28.80
2022-12-17T00:27:02.755Z,26.63
2022-12-17T00:30:23.631Z,25.77
2022-12-17T00:33:44.511Z,29.47
2022-12-17T00:37:04.740Z,26.27
2022-12-17T00:40:26.006Z,29.67
2022-12-17T00:43:46.241Z,28.40
2022-12-17T00:47:06.661Z,26.90
2022-12-17T00:50:27.646Z,24.87
2022-12-17T00:53:47.891Z,25.07
2022-12-17T00:57:08.101Z,27.87
2022-12-17T01:00:28.868Z,29.93
2022-12-17T01:03:49.236Z,30.00
2022-12-17T01:07:09.347Z,30.00
2022-12-17T01:10:30.174Z,32.03
2022-12-17T01:13:51.335Z,30.13
2022-12-17T01:17:12.190Z,28.63
2022-12-17T01:20:32.702Z,30.33
2022-12-17T01:23:52.909Z,32.60
2022-12-17T01:27:12.935Z,31.17
2022-12-17T01:30:33.300Z,29.33
2022-12-17T01:33:53.520Z,31.77
2022-12-17T01:37:13.795Z,27.47
2022-12-17T01:40:34.907Z,28.30
2022-12-17T01:43:57.695Z,24.83
2022-12-17T01:47:18.025Z,25.73
2022-12-17T01:50:42.348Z,25.47
2022-12-17T01:54:09.244Z,22.53
2022-12-17T01:57:29.689Z,23.77
2022-12-17T02:00:49.930Z,22.10
2022-12-17T02:04:10.167Z,22.70
2022-12-17T02:07:45.268Z,21.97
2022-12-17T02:11:23.935Z,22.03
2022-12-17T02:14:51.479Z,17.77
2022-12-17T02:18:16.370Z,18.73
2022-12-17T02:21:39.245Z,18.47
2022-12-17T02:25:16.855Z,19.50
2022-12-17T02:28:39.257Z,17.87
2022-12-17T02:32:03.042Z,20.37
2022-12-17T02:35:31.345Z,18.73
2022-12-17T02:38:52.167Z,19.50
2022-12-17T02:42:15.403Z,17.43
2022-12-17T02:45:36.804Z,17.17
2022-12-17T02:48:57.231Z,18.10
2022-12-17T02:52:17.470Z,20.57
2022-12-17T02:55:38.038Z,19.37
2022-12-17T02:59:00.072Z,20.40
2022-12-17T03:02:20.710Z,15.80
2022-12-17T03:05:45.615Z,18.57
2022-12-17T03:09:06.062Z,16.73
2022-12-17T03:12:26.322Z,17.40
2022-12-17T03:15:46.762Z,19.80
2022-12-17T03:19:08.657Z,16.90
2022-12-17T03:22:29.167Z,16.43
2022-12-17T03:25:49.807Z,15.77
2022-12-17T03:29:10.228Z,16.13
2022-12-17T03:32:30.571Z,18.07
2022-12-17T03:35:50.827Z,17.70
2022-12-17T03:39:21.884Z,16.80
2022-12-17T03:42:42.379Z,16.00
2022-12-17T03:46:10.982Z,18.63
2022-12-17T03:49:31.338Z,15.20
2022-12-17T03:53:02.133Z,16.20
2022-12-17T03:56:22.599Z,15.97
2022-12-17T03:59:42.997Z,16.40
2022-12-17T04:03:03.719Z,15.97
2022-12-17T04:06:23.892Z,17.73
2022-12-17T04:09:44.136Z,16.27
2022-12-17T04:13:04.624Z,16.80
2022-12-17T04:16:24.883Z,14.23
2022-12-17T04:19:45.328Z,15.33
2022-12-17T04:23:05.880Z,15.17
2022-12-17T04:26:26.904Z,15.70
2022-12-17T04:29:47.315Z,16.20
2022-12-17T04:33:07.684Z,16.80
2022-12-17T04:36:28.202Z,17.03
2022-12-17T04:39:48.658Z,15.93
2022-12-17T04:43:09.141Z,16.23
2022-12-17T04:46:29.675Z,15.70
2022-12-17T04:49:50.067Z,14.50
2022-12-17T04:53:21.817Z,15.60
2022-12-17T04:56:42.328Z,14.33
2022-12-17T05:00:02.632Z,15.07
2022-12-17T05:03:24.694Z,15.37
2022-12-17T05:07:01.666Z,14.87
2022-12-17T05:10:22.495Z,16.23
2022-12-17T05:13:43.051Z,14.03
2022-12-17T05:17:03.517Z,14.90
2022-12-17T05:20:24.608Z,14.20
2022-12-17T05:23:45.082Z,15.73
2022-12-17T05:27:05.412Z,14.53
2022-12-17T05:30:26.964Z,14.63
2022-12-17T05:33:47.208Z,14.87
2022-12-17T05:37:07.580Z,14.93
2022-12-17T05:40:28.601Z,16.60
2022-12-17T05:43:49.030Z,15.63
2022-12-17T05:47:09.411Z,15.20
2022-12-17T05:50:29.738Z,14.37
2022-12-17T05:53:50.396Z,14.03
2022-12-17T05:57:11.410Z,15.63
2022-12-17T06:00:32.066Z,14.70
2022-12-17T06:03:52.549Z,15.97
2022-12-17T06:07:12.588Z,16.43
2022-12-17T06:10:32.912Z,14.30
2022-12-17T06:13:53.115Z,15.57
2022-12-17T06:17:14.086Z,13.80
2022-12-17T06:20:51.238Z,13.07
2022-12-17T06:24:11.866Z,13.93
2022-12-17T06:27:32.172Z,13.50
2022-12-17T06:30:52.603Z,13.10
2022-12-17T06:34:13.061Z,13.67
2022-12-17T06:37:33.550Z,13.50
2022-12-17T06:40:54.007Z,14.17
2022-12-17T06:44:14.365Z,12.37
2022-12-17T06:47:34.765Z,13.77
2022-12-17T06:50:55.125Z,12.13
2022-12-17T06:54:15.722Z,13.73
2022-12-17T06:57:40.511Z,15.10
2022-12-17T07:01:02.047Z,14.90
2022-12-17T07:04:23.455Z,16.17
2022-12-17T07:07:43.917Z,13.03
2022-12-17T07:11:04.472Z,11.77
2022-12-17T07:14:24.945Z,17.13
2022-12-17T07:17:45.315Z,23.03
2022-12-17T07:21:06.379Z,14.70
2022-12-17T07:24:27.114Z,15.37
2022-12-17T07:27:47.536Z,15.63
2022-12-17T07:31:07.997Z,14.27
2022-12-17T07:34:28.186Z,12.83
2022-12-17T07:37:48.727Z,14.30
2022-12-17T07:41:09.136Z,12.70
2022-12-17T07:44:29.645Z,14.53
2022-12-17T07:47:50.017Z,13.20
2022-12-17T07:51:10.663Z,13.53
2022-12-17T07:54:31.073Z,12.93
2022-12-17T07:57:51.474Z,11.10
2022-12-17T08:01:12.239Z,13.77
2022-12-17T08:04:32.577Z,13.10
2022-12-17T08:07:52.937Z,15.03
2022-12-17T08:11:13.424Z,14.13
2022-12-17T08:14:33.504Z,12.27
2022-12-17T08:17:53.792Z,10.73
2022-12-17T08:21:14.360Z,12.20
2022-12-17T08:24:34.860Z,14.07
2022-12-17T08:27:55.330Z,14.03
2022-12-17T08:31:18.097Z,13.07
2022-12-17T08:34:38.304Z,14.13
2022-12-17T08:37:58.734Z,12.20
2022-12-17T08:41:19.713Z,11.87
2022-12-17T08:44:40.121Z,12.37
2022-12-17T08:48:04.146Z,12.27
2022-12-17T08:51:24.636Z,13.40
2022-12-17T08:54:45.100Z,13.57
2022-12-17T08:58:16.672Z,14.47
2022-12-17T09:01:37.275Z,14.33
2022-12-17T09:04:57.659Z,12.30
2022-12-17T09:08:22.760Z,14.07
2022-12-17T09:11:43.058Z,10.60
2022-12-17T09:15:03.698Z,13.00
2022-12-17T09:18:24.308Z,12.30
2022-12-17T09:21:47.646Z,11.37
2022-12-17T09:25:08.190Z,11.53
2022-12-17T09:28:28.554Z,11.80
2022-12-17T09:31:50.419Z,12.17
2022-12-17T09:35:10.918Z,11.17
2022-12-17T09:38:32.806Z,12.37
2022-12-17T09:42:22.649Z,11.23
2022-12-17T09:45:54.354Z,12.27
2022-12-17T09:49:30.566Z,12.73
2022-12-17T09:52:55.601Z,12.33
2022-12-17T09:56:16.657Z,14.80
2022-12-17T09:59:45.694Z,12.80
2022-12-17T10:03:16.967Z,16.50
2022-12-17T10:06:41.018Z,12.67
2022-12-17T10:10:01.526Z,13.10
2022-12-17T10:13:30.585Z,14.60
2022-12-17T10:17:05.913Z,11.07
2022-12-17T10:20:57.779Z,12.50
2022-12-17T10:24:29.211Z,11.57
2022-12-17T10:27:49.488Z,12.73
2022-12-17T10:31:10.325Z,11.43
2022-12-17T10:34:37.105Z,13.67
2022-12-17T10:37:57.543Z,13.77
2022-12-17T10:41:17.959Z,11.97
2022-12-17T10:44:48.077Z,11.03
2022-12-17T10:48:08.336Z,13.47
2022-12-17T10:51:51.245Z,14.60
2022-12-17T10:55:18.267Z,11.73
2022-12-17T10:58:43.629Z,13.60
2022-12-17T11:02:04.257Z,11.90
2022-12-17T11:05:33.194Z,12.23
2022-12-17T11:08:53.879Z,13.37
2022-12-17T11:12:14.391Z,11.83
2022-12-17T11:15:42.756Z,12.17
2022-12-17T11:19:27.563Z,9.87
2022-12-17T11:22:59.501Z,9.43
2022-12-17T11:26:30.936Z,10.83
2022-12-17T11:29:51.982Z,11.73
2022-12-17T11:33:40.620Z,10.07
2022-12-17T11:37:27.784Z,9.67
2022-12-17T11:41:12.821Z,10.67
2022-12-17T11:44:42.406Z,9.83
2022-12-17T11:48:08.017Z,10.77
2022-12-17T11:51:37.366Z,11.50
2022-12-17T11:55:04.846Z,11.00
2022-12-17T11:58:47.027Z,13.87
2022-12-17T12:02:47.060Z,13.43
2022-12-17T12:06:23.783Z,12.80
2022-12-17T12:09:49.815Z,13.13
2022-12-17T12:13:28.894Z,12.67
2022-12-17T12:17:03.911Z,12.17
2022-12-17T12:20:26.967Z,13.87
2022-12-17T12:24:11.602Z,12.17
2022-12-17T12:27:53.491Z,15.70
2022-12-17T12:31:29.908Z,14.70
2022-12-17T12:34:54.241Z,14.47
2022-12-17T12:38:14.756Z,11.73
2022-12-17T12:41:37.816Z,10.93
2022-12-17T12:45:07.453Z,13.67
2022-12-17T12:48:48.374Z,13.03
2022-12-17T12:52:11.063Z,12.57
2022-12-17T12:55:51.554Z,13.07
2022-12-17T12:59:11.887Z,13.33
2022-12-17T13:02:50.223Z,15.83
2022-12-17T13:05:51.931Z,11.37
2022-12-17T13:09:05.038Z,9.93
2022-12-17T13:12:22.239Z,14.03
2022-12-17T13:15:36.321Z,12.20
2022-12-17T13:18:41.868Z,11.13
2022-12-17T13:21:43.841Z,10.90
2022-12-17T13:24:48.475Z,11.87
2022-12-17T13:27:50.687Z,11.63
2022-12-17T13:31:01.692Z,10.07
2022-12-17T13:34:25.973Z,11.07
2022-12-17T13:37:38.639Z,10.30
2022-12-17T13:40:55.382Z,10.97
2022-12-17T13:44:01.266Z,14.10
2022-12-17T13:47:02.976Z,11.87
2022-12-17T13:50:36.660Z,10.50
2022-12-17T13:53:38.764Z,12.17
2022-12-17T13:56:40.425Z,24.80
2022-12-17T13:59:53.671Z,14.47
2022-12-17T14:02:55.770Z,12.60
2022-12-17T14:05:58.383Z,14.37
2022-12-17T14:09:00.420Z,13.13
2022-12-17T14:12:24.519Z,11.80
2022-12-17T14:15:29.805Z,12.70
2022-12-17T14:18:31.654Z,11.77
2022-12-17T14:21:33.397Z,13.17
2022-12-17T14:24:35.139Z,10.73
2022-12-17T14:27:37.047Z,12.30
2022-12-17T14:31:17.283Z,10.93
2022-12-17T14:34:11.150Z,12.73
2022-12-17T14:37:18.366Z,12.93
2022-12-17T14:40:20.539Z,13.03
2022-12-17T14:43:28.801Z,11.57
2022-12-17T14:46:32.230Z,12.87
2022-12-17T14:49:34.548Z,11.53
2022-12-17T14:52:44.098Z,13.10
2022-12-17T14:55:57.250Z,12.40
2022-12-17T14:58:58.916Z,14.67
2022-12-17T15:02:13.269Z,11.87
2022-12-17T15:05:16.227Z,12.47
2022-12-17T15:08:18.091Z,12.93
2022-12-17T15:11:21.858Z,13.27
2022-12-17T15:14:23.502Z,23.20
2022-12-17T15:17:25.146Z,12.27
2022-12-17T15:20:27.081Z,13.23
2022-12-17T15:23:29.072Z,11.03
2022-12-17T15:26:30.734Z,11.13
2022-12-17T15:29:34.480Z,18.40
2022-12-17T15:32:36.130Z,10.03
2022-12-17T15:35:38.245Z,12.07
2022-12-17T15:38:40.223Z,11.63
2022-12-17T15:42:00.747Z,11.37
2022-12-17T15:45:02.413Z,11.47
2022-12-17T15:48:04.246Z,11.47
2022-12-17T15:51:05.924Z,11.70
2022-12-17T15:54:07.595Z,11.17
2022-12-17T15:57:12.889Z,10.83
2022-12-17T16:00:18.791Z,10.27
2022-12-17T16:03:20.641Z,10.53
2022-12-17T16:06:22.354Z,12.03
2022-12-17T16:09:25.871Z,14.83
2022-12-17T16:12:27.735Z,12.27
2022-12-17T16:15:30.215Z,14.07
2022-12-17T16:18:32.596Z,12.73
2022-12-17T16:21:34.299Z,15.37
2022-12-17T16:24:36.134Z,16.00
2022-12-17T16:27:37.880Z,14.27
2022-12-17T16:30:42.465Z,17.73
2022-12-17T16:33:45.394Z,17.00
2022-12-17T16:36:47.084Z,20.33
2022-12-17T16:39:53.953Z,17.03
2022-12-17T16:43:01.310Z,17.50
2022-12-17T16:46:06.464Z,17.80
2022-12-17T16:49:14.074Z,16.40
2022-12-17T16:52:15.715Z,18.17
2022-12-17T16:55:17.363Z,18.10
2022-12-17T16:58:19.043Z,19.17
2022-12-17T17:01:22.502Z,18.77
2022-12-17T17:04:24.472Z,21.23
2022-12-17T17:07:26.178Z,21.07
2022-12-17T17:10:28.735Z,20.53
2022-12-17T17:13:30.381Z,21.70
2022-12-17T17:16:34.031Z,21.47
2022-12-17T17:19:35.760Z,18.77
2022-12-17T17:22:37.420Z,22.90
2022-12-17T17:25:57.416Z,22.57
2022-12-17T17:29:00.220Z,22.40
2022-12-17T17:32:10.557Z,21.67
2022-12-17T17:35:12.891Z,21.87
2022-12-17T17:38:14.570Z,23.23
2022-12-17T17:41:18.655Z,21.50
2022-12-17T17:44:20.348Z,19.63
2022-12-17T17:47:22.061Z,21.33
2022-12-17T17:50:23.707Z,22.67
2022-12-17T17:53:25.785Z,20.43
2022-12-17T17:56:31.256Z,21.77
2022-12-17T17:59:34.295Z,23.53
2022-12-17T18:02:36.362Z,20.90
2022-12-17T18:05:41.733Z,21.53
2022-12-17T18:08:44.036Z,20.70
2022-12-17T18:11:45.805Z,20.70
2022-12-17T18:15:12.780Z,20.33
2022-12-17T18:18:14.337Z,20.70
2022-12-17T18:21:19.016Z,19.27
2022-12-17T18:24:22.748Z,21.23
2022-12-17T18:27:24.412Z,19.00
2022-12-17T18:30:26.048Z,19.70
2022-12-17T18:33:27.674Z,19.83
2022-12-17T18:36:38.547Z,19.70
2022-12-17T18:39:40.261Z,17.73
2022-12-17T18:43:00.650Z,18.43
2022-12-17T18:46:04.127Z,21.00
2022-12-17T18:49:11.771Z,15.37
2022-12-17T18:52:16.949Z,18.33
2022-12-17T18:55:19.176Z,17.63
2022-12-17T18:58:20.844Z,21.00
2022-12-17T19:01:25.817Z,20.20
2022-12-17T19:04:27.925Z,18.60
2022-12-17T19:07:29.572Z,19.60
2022-12-17T19:10:31.216Z,22.03
2022-12-17T19:13:33.247Z,19.53
2022-12-17T19:16:34.935Z,21.73
2022-12-17T19:19:36.668Z,23.23
2022-12-17T19:22:38.299Z,18.80
2022-12-17T19:25:39.961Z,20.13
2022-12-17T19:28:43.706Z,19.23
2022-12-17T19:31:46.164Z,18.80
2022-12-17T19:34:47.876Z,20.30
2022-12-17T19:37:50.018Z,18.07
2022-12-17T19:40:52.210Z,17.77
2022-12-17T19:43:57.612Z,19.60
2022-12-17T19:46:59.318Z,18.83
2022-12-17T19:50:00.996Z,20.47
2022-12-17T19:53:02.663Z,23.17
2022-12-17T19:56:22.526Z,20.77
2022-12-17T19:59:24.293Z,20.43
2022-12-17T20:02:32.326Z,19.07
2022-12-17T20:05:34.580Z,21.77
2022-12-17T20:08:37.082Z,18.70
2022-12-17T20:11:39.526Z,18.33
2022-12-17T20:14:41.176Z,19.60
2022-12-17T20:17:42.850Z,17.30
2022-12-17T20:20:44.490Z,18.37
2022-12-17T20:23:47.588Z,20.70
2022-12-17T20:26:51.244Z,20.53
2022-12-17T20:29:53.131Z,17.83
2022-12-17T20:32:54.785Z,19.60
2022-12-17T20:36:02.207Z,19.80
2022-12-17T20:39:04.235Z,18.20
2022-12-17T20:42:05.987Z,17.97
2022-12-17T20:45:08.358Z,19.33
2022-12-17T20:48:09.969Z,17.37
2022-12-17T20:51:18.237Z,19.63
2022-12-17T20:54:19.930Z,16.63
2022-12-17T20:57:21.564Z,18.57
2022-12-17T21:00:23.214Z,16.63
2022-12-17T21:03:24.926Z,16.93
2022-12-17T21:06:29.030Z,16.40
2022-12-17T21:09:30.698Z,20.00
2022-12-17T21:12:52.477Z,17.00
2022-12-17T21:15:54.377Z,15.70
2022-12-17T21:18:58.018Z,16.33
2022-12-17T21:21:59.723Z,15.73
2022-12-17T21:25:01.367Z,12.47
2022-12-17T21:28:03.139Z,22.13
2022-12-17T21:31:05.341Z,25.90
2022-12-17T21:34:10.671Z,16.03
2022-12-17T21:37:13.670Z,13.57
2022-12-17T21:40:15.359Z,14.37
2022-12-17T21:43:17.082Z,14.87
2022-12-17T21:46:18.894Z,14.53
2022-12-17T21:49:20.607Z,14.57
2022-12-17T21:52:22.444Z,12.07
2022-12-17T21:55:24.747Z,14.07
2022-12-17T21:58:26.390Z,12.10
2022-12-17T22:01:31.736Z,14.17
2022-12-17T22:04:33.692Z,13.73
2022-12-17T22:07:38.730Z,13.53
2022-12-17T22:10:49.347Z,15.30
2022-12-17T22:14:13.786Z,13.60
2022-12-17T22:17:18.828Z,14.00
2022-12-17T22:20:20.623Z,12.77
2022-12-17T22:23:22.255Z,12.97
2022-12-17T22:26:24.266Z,11.90
2022-12-17T22:29:46.319Z,12.93
2022-12-17T22:33:00.172Z,11.60
2022-12-17T22:38:47.423Z,11.80
2022-12-17T22:42:19.619Z,12.17
2022-12-17T22:44:43.045Z,11.97
2022-12-17T22:46:27.400Z,12.30
2022-12-17T22:49:29.107Z,11.97
2022-12-17T22:52:30.753Z,12.47
2022-12-17T22:55:33.513Z,10.77
2022-12-17T22:58:38.739Z,9.90
2022-12-17T23:01:40.459Z,11.83
2022-12-17T23:04:42.525Z,12.17
2022-12-17T23:07:44.237Z,11.77
2022-12-17T23:10:45.921Z,12.43
2022-12-17T23:13:47.601Z,11.43
2022-12-17T23:16:49.246Z,11.03
2022-12-17T23:19:50.869Z,9.53
2022-12-17T23:22:52.630Z,10.30
2022-12-17T23:25:54.419Z,10.90
2022-12-17T23:28:58.377Z,9.50
2022-12-17T23:32:00.028Z,12.80
2022-12-17T23:35:01.763Z,11.40
2022-12-17T23:38:03.411Z,12.77
2022-12-17T23:41:11.330Z,11.13
2022-12-17T23:44:13.007Z,11.63
2022-12-17T23:47:14.711Z,12.10
2022-12-17T23:50:17.243Z,10.40
2022-12-17T23:53:18.896Z,10.60
2022-12-17T23:56:23.856Z,8.73
2022-12-17T23:59:25.471Z,10.63
